createdAt,value
2019-01-24T00:01:31.936Z,48.60
2019-01-24T00:04:16.995Z,71.70
2019-01-24T00:07:01.830Z,76.73
2019-01-24T00:09:46.019Z,69.93
2019-01-24T00:12:31.066Z,57.53
2019-01-24T00:15:15.939Z,65.37
2019-01-24T00:18:00.159Z,69.57
2019-01-24T00:20:45.070Z,68.40
2019-01-24T00:23:30.167Z,57.57
2019-01-24T00:26:15.102Z,59.67
2019-01-24T00:28:59.368Z,65.67
2019-01-24T00:31:44.273Z,66.90
2019-01-24T00:34:28.507Z,55.07
2019-01-24T00:37:12.718Z,66.83
2019-01-24T00:39:56.919Z,79.27
2019-01-24T00:42:41.202Z,46.70
2019-01-24T00:45:25.471Z,58.20
2019-01-24T00:48:09.640Z,67.53
2019-01-24T00:50:52.095Z,48.73
2019-01-24T00:53:43.498Z,47.77
2019-01-24T00:56:27.769Z,57.10
2019-01-24T00:59:11.987Z,60.50
2019-01-24T01:01:57.108Z,50.77
2019-01-24T01:04:41.363Z,72.67
2019-01-24T01:07:26.173Z,72.73
2019-01-24T01:10:10.994Z,66.17
2019-01-24T01:12:56.004Z,46.63
2019-01-24T01:15:40.830Z,74.53
2019-01-24T01:18:25.788Z,61.67
2019-01-24T01:21:10.030Z,61.47
2019-01-24T01:23:54.898Z,68.83
2019-01-24T01:26:39.730Z,74.27
2019-01-24T01:29:24.727Z,74.60
2019-01-24T01:32:09.694Z,66.93
2019-01-24T01:34:54.691Z,61.03
2019-01-24T01:37:39.721Z,63.20
2019-01-24T01:40:24.762Z,69.83
2019-01-24T01:43:08.920Z,72.73
2019-01-24T01:45:53.797Z,69.10
2019-01-24T01:48:38.856Z,64.13
2019-01-24T01:51:23.959Z,65.57
2019-01-24T01:54:09.003Z,67.03
2019-01-24T01:56:53.198Z,70.57
2019-01-24T01:59:37.323Z,79.50
2019-01-24T02:02:22.318Z,63.77
2019-01-24T02:05:06.526Z,67.30
2019-01-24T02:07:50.737Z,49.90
2019-01-24T02:10:35.023Z,78.07
2019-01-24T02:13:19.928Z,70.97
2019-01-24T02:16:05.046Z,62.87
2019-01-24T02:18:49.293Z,76.07
2019-01-24T02:21:33.497Z,66.73
2019-01-24T02:24:17.719Z,65.83
2019-01-24T02:27:02.749Z,68.97
2019-01-24T02:29:47.816Z,54.60
2019-01-24T02:32:31.997Z,61.50
2019-01-24T02:35:16.333Z,65.87
2019-01-24T02:38:01.334Z,66.70
2019-01-24T02:40:46.380Z,68.27
2019-01-24T02:43:31.490Z,63.87
2019-01-24T02:46:16.478Z,64.40
2019-01-24T02:49:01.393Z,75.77
2019-01-24T02:51:45.599Z,60.37
2019-01-24T02:54:30.466Z,60.87
2019-01-24T02:57:15.389Z,75.40
2019-01-24T03:00:00.360Z,61.57
2019-01-24T03:02:45.441Z,71.00
2019-01-24T03:05:30.459Z,42.73
2019-01-24T03:08:14.590Z,73.23
2019-01-24T03:10:58.742Z,57.33
2019-01-24T03:13:41.143Z,60.63
2019-01-24T03:16:32.483Z,73.73
2019-01-24T03:19:17.216Z,57.40
2019-01-24T03:22:02.246Z,74.73
2019-01-24T03:24:47.317Z,68.07
2019-01-24T03:27:29.845Z,76.83
2019-01-24T03:30:21.284Z,68.13
2019-01-24T03:33:05.883Z,71.20
2019-01-24T03:35:48.512Z,65.80
2019-01-24T03:38:33.150Z,55.40
2019-01-24T03:41:17.992Z,62.67
2019-01-24T03:44:00.449Z,64.87
2019-01-24T03:46:44.971Z,59.83
2019-01-24T03:49:29.868Z,66.40
2019-01-24T03:52:14.637Z,75.57
2019-01-24T03:54:59.619Z,69.90
2019-01-24T03:57:44.258Z,70.40
2019-01-24T04:00:29.293Z,67.33
2019-01-24T04:03:14.023Z,68.60
2019-01-24T04:05:59.071Z,70.33
2019-01-24T04:08:43.457Z,48.97
2019-01-24T04:11:28.512Z,72.20
2019-01-24T04:14:13.630Z,66.60
2019-01-24T04:16:58.379Z,67.80
2019-01-24T04:19:43.426Z,70.17
2019-01-24T04:22:28.350Z,67.37
2019-01-24T04:25:13.325Z,69.97
2019-01-24T04:27:58.322Z,74.57
2019-01-24T04:30:43.246Z,70.93
2019-01-24T04:33:28.249Z,76.37
2019-01-24T04:36:12.546Z,83.23
2019-01-24T04:38:56.837Z,68.07
2019-01-24T04:41:41.766Z,79.87
2019-01-24T04:44:26.051Z,55.03
2019-01-24T04:47:11.025Z,69.37
2019-01-24T04:49:53.509Z,74.90
2019-01-24T04:52:44.973Z,73.03
2019-01-24T04:55:29.207Z,75.27
2019-01-24T04:58:14.209Z,72.17
2019-01-24T05:00:58.434Z,51.53
2019-01-24T05:03:43.474Z,79.10
2019-01-24T05:06:28.522Z,80.23
2019-01-24T05:09:13.487Z,79.77
2019-01-24T05:11:56.132Z,95.63
2019-01-24T05:14:40.575Z,70.93
2019-01-24T05:17:25.549Z,71.03
2019-01-24T05:20:08.993Z,62.73
2019-01-24T05:23:00.326Z,91.53
2019-01-24T05:25:44.699Z,71.10
2019-01-24T05:28:28.951Z,79.40
2019-01-24T05:31:14.018Z,81.13
2019-01-24T05:33:58.955Z,79.17
2019-01-24T05:36:43.901Z,73.47
2019-01-24T05:39:28.963Z,82.40
2019-01-24T05:42:13.991Z,71.47
2019-01-24T05:44:58.235Z,51.87
2019-01-24T05:47:42.400Z,76.53
2019-01-24T05:50:27.447Z,72.10
2019-01-24T05:53:12.457Z,87.43
2019-01-24T05:55:57.500Z,59.30
2019-01-24T05:58:42.291Z,82.47
2019-01-24T06:01:27.793Z,78.70
2019-01-24T06:04:12.264Z,82.27
2019-01-24T06:06:57.276Z,73.53
2019-01-24T06:09:42.225Z,81.83
2019-01-24T06:12:26.434Z,84.33
2019-01-24T06:15:11.450Z,63.77
2019-01-24T06:17:53.885Z,79.80
2019-01-24T06:20:38.700Z,82.80
2019-01-24T06:23:23.703Z,81.63
2019-01-24T06:25:55.373Z,84.53
2019-01-24T06:28:46.719Z,73.57
2019-01-24T06:31:30.913Z,77.73
2019-01-24T06:34:16.047Z,83.60
2019-01-24T06:37:01.225Z,83.10
2019-01-24T06:39:46.368Z,56.03
2019-01-24T06:42:28.778Z,70.30
2019-01-24T06:45:20.621Z,74.30
2019-01-24T06:48:05.142Z,37.63
2019-01-24T06:50:50.242Z,81.20
2019-01-24T06:53:35.186Z,85.30
2019-01-24T06:56:17.610Z,28.27
2019-01-24T06:59:08.932Z,80.67
2019-01-24T07:01:53.499Z,76.90
2019-01-24T07:04:38.493Z,82.03
2019-01-24T07:07:23.462Z,65.17
2019-01-24T07:10:08.433Z,75.43
2019-01-24T07:12:52.699Z,90.93
2019-01-24T07:15:37.134Z,85.73
2019-01-24T07:18:22.106Z,70.63
2019-01-24T07:21:06.267Z,68.03
2019-01-24T07:23:50.476Z,89.23
2019-01-24T07:26:35.593Z,63.37
2019-01-24T07:29:20.790Z,64.43
2019-01-24T07:32:05.749Z,53.60
2019-01-24T07:34:50.746Z,56.43
2019-01-24T07:37:35.773Z,61.40
2019-01-24T07:40:20.050Z,72.07
2019-01-24T07:43:05.231Z,67.70
2019-01-24T07:45:49.489Z,73.03
2019-01-24T07:48:34.460Z,64.13
2019-01-24T07:51:18.585Z,73.47
2019-01-24T07:54:02.735Z,69.93
2019-01-24T07:56:45.242Z,70.00
2019-01-24T07:59:36.582Z,67.23
2019-01-24T08:02:21.127Z,65.73
2019-01-24T08:05:06.095Z,74.67
2019-01-24T08:07:50.916Z,78.90
2019-01-24T08:10:35.677Z,77.77
2019-01-24T08:13:20.713Z,62.33
2019-01-24T08:15:52.394Z,72.37
2019-01-24T08:18:43.713Z,77.23
2019-01-24T08:21:28.430Z,45.40
2019-01-24T08:24:00.149Z,45.20
2019-01-24T08:26:51.492Z,65.43
2019-01-24T08:29:42.835Z,42.20
2019-01-24T08:32:27.501Z,56.27
2019-01-24T08:35:12.390Z,68.77
2019-01-24T08:37:56.773Z,67.57
2019-01-24T08:40:41.794Z,85.23
2019-01-24T08:43:26.933Z,68.60
2019-01-24T08:46:11.121Z,56.17
2019-01-24T08:48:56.177Z,64.30
2019-01-24T08:51:41.291Z,63.37
2019-01-24T08:54:26.325Z,67.83
2019-01-24T08:57:10.607Z,64.73
2019-01-24T08:59:54.797Z,59.87
2019-01-24T09:02:39.140Z,59.10
2019-01-24T09:05:24.201Z,64.37
2019-01-24T09:08:09.310Z,47.43
2019-01-24T09:10:53.541Z,59.60
2019-01-24T09:13:35.937Z,62.60
2019-01-24T09:16:27.315Z,68.60
2019-01-24T09:19:12.079Z,55.17
2019-01-24T09:21:56.238Z,54.67
2019-01-24T09:24:41.327Z,64.10
2019-01-24T09:27:26.338Z,58.20
2019-01-24T09:30:11.321Z,71.50
2019-01-24T09:33:00.229Z,65.33
2019-01-24T09:35:50.777Z,71.37
2019-01-24T09:38:36.322Z,57.20
2019-01-24T09:41:21.649Z,56.03
2019-01-24T09:44:06.732Z,57.13
2019-01-24T09:46:51.639Z,57.63
2019-01-24T09:49:36.585Z,39.17
2019-01-24T09:52:21.451Z,61.63
2019-01-24T09:55:05.704Z,41.63
2019-01-24T09:57:50.605Z,54.67
2019-01-24T10:00:39.068Z,60.50
2019-01-24T10:03:23.676Z,65.33
2019-01-24T10:06:08.146Z,49.83
2019-01-24T10:08:50.614Z,57.63
2019-01-24T10:11:41.949Z,53.90
2019-01-24T10:14:26.176Z,56.87
2019-01-24T10:17:14.267Z,50.67
2019-01-24T10:19:59.162Z,48.27
2019-01-24T10:22:30.819Z,52.73
2019-01-24T10:25:41.852Z,55.93
2019-01-24T10:28:13.798Z,52.80
2019-01-24T10:31:05.145Z,61.00
2019-01-24T10:33:49.346Z,62.57
2019-01-24T10:36:34.437Z,62.00
2019-01-24T10:39:21.599Z,57.00
2019-01-24T10:41:53.312Z,66.70
2019-01-24T10:44:25.147Z,57.83
2019-01-24T10:46:56.865Z,61.80
2019-01-24T10:49:28.522Z,54.43
2019-01-24T10:52:00.145Z,59.70
2019-01-24T10:54:31.793Z,62.57
2019-01-24T10:57:03.721Z,64.83
2019-01-24T10:59:35.419Z,64.57
2019-01-24T11:02:07.137Z,55.83
2019-01-24T11:04:38.781Z,55.00
2019-01-24T11:07:30.111Z,49.70
2019-01-24T11:10:14.812Z,78.80
2019-01-24T11:12:57.355Z,45.23
2019-01-24T11:15:42.117Z,46.53
2019-01-24T11:18:26.981Z,59.43
2019-01-24T11:21:11.178Z,51.87
2019-01-24T11:23:58.229Z,55.27
2019-01-24T11:26:42.606Z,53.73
2019-01-24T11:29:26.808Z,46.17
2019-01-24T11:32:09.252Z,61.70
2019-01-24T11:34:53.984Z,45.57
2019-01-24T11:37:38.276Z,48.30
2019-01-24T11:40:23.368Z,57.20
2019-01-24T11:43:07.635Z,51.50
2019-01-24T11:45:51.847Z,35.23
2019-01-24T11:48:34.366Z,48.63
2019-01-24T11:51:19.105Z,31.33
2019-01-24T11:54:03.400Z,60.43
2019-01-24T11:56:47.674Z,47.67
2019-01-24T11:59:30.187Z,50.60
2019-01-24T12:02:21.514Z,57.43
2019-01-24T12:05:06.289Z,38.47
2019-01-24T12:07:50.510Z,56.00
2019-01-24T12:10:35.510Z,47.53
2019-01-24T12:13:19.721Z,47.70
2019-01-24T12:16:04.777Z,50.83
2019-01-24T12:18:49.749Z,37.50
2019-01-24T12:21:34.851Z,67.97
2019-01-24T12:24:19.860Z,48.03
2019-01-24T12:27:04.909Z,56.13
2019-01-24T12:29:49.163Z,49.37
2019-01-24T12:32:31.606Z,44.57
2019-01-24T12:35:16.251Z,42.17
2019-01-24T12:38:00.567Z,59.50
2019-01-24T12:40:44.849Z,55.50
2019-01-24T12:43:29.008Z,46.43
2019-01-24T12:46:14.123Z,55.43
2019-01-24T12:48:58.448Z,44.80
2019-01-24T12:51:43.286Z,52.70
2019-01-24T12:54:28.282Z,52.80
2019-01-24T12:57:12.461Z,48.20
2019-01-24T12:59:56.678Z,52.47
2019-01-24T13:02:41.665Z,56.50
2019-01-24T13:05:26.731Z,53.63
2019-01-24T13:08:11.619Z,53.07
2019-01-24T13:10:56.669Z,47.60
2019-01-24T13:13:40.922Z,55.63
2019-01-24T13:16:25.862Z,52.93
2019-01-24T13:19:10.917Z,52.33
2019-01-24T13:21:55.958Z,55.40
2019-01-24T13:24:40.898Z,56.97
2019-01-24T13:27:25.926Z,50.73
2019-01-24T13:29:57.578Z,62.53
2019-01-24T13:32:48.944Z,57.97
2019-01-24T13:35:40.334Z,54.67
2019-01-24T13:38:31.674Z,49.47
2019-01-24T13:41:16.741Z,48.77
2019-01-24T13:44:00.962Z,56.10
2019-01-24T13:46:46.056Z,56.20
2019-01-24T13:49:31.247Z,51.63
2019-01-24T13:52:15.537Z,58.47
2019-01-24T13:55:00.518Z,67.17
2019-01-24T13:57:32.296Z,68.17
2019-01-24T14:00:24.630Z,66.87
2019-01-24T14:03:41.764Z,61.83
2019-01-24T14:06:21.903Z,67.27
2019-01-24T14:09:06.693Z,80.53
2019-01-24T14:11:51.329Z,88.57
2019-01-24T14:14:36.390Z,71.80
2019-01-24T14:17:21.405Z,99.57
2019-01-24T14:20:06.261Z,86.07
2019-01-24T14:22:51.021Z,78.43
2019-01-24T14:25:33.467Z,85.47
2019-01-24T14:28:18.017Z,95.17
2019-01-24T14:31:03.078Z,102.23
2019-01-24T14:33:47.692Z,88.13
2019-01-24T14:36:32.835Z,85.27
2019-01-24T14:39:17.634Z,74.13
2019-01-24T14:42:02.694Z,92.80
2019-01-24T14:44:47.769Z,95.77
2019-01-24T14:47:32.658Z,84.37
2019-01-24T14:50:16.866Z,77.70
2019-01-24T14:53:01.748Z,85.57
2019-01-24T14:55:47.075Z,87.33
2019-01-24T14:58:31.234Z,80.37
2019-01-24T15:01:15.398Z,89.90
2019-01-24T15:04:00.515Z,89.50
2019-01-24T15:06:45.613Z,80.03
2019-01-24T15:09:29.823Z,98.50
2019-01-24T15:12:14.744Z,80.93
2019-01-24T15:14:59.835Z,90.80
2019-01-24T15:17:44.761Z,100.40
2019-01-24T15:20:29.900Z,96.93
2019-01-24T15:23:14.919Z,101.93
2019-01-24T15:25:59.937Z,84.90
2019-01-24T15:28:42.410Z,88.13
2019-01-24T15:31:33.724Z,82.20
2019-01-24T15:34:18.260Z,79.27
2019-01-24T15:37:02.491Z,92.97
2019-01-24T15:39:47.522Z,67.77
2019-01-24T15:42:32.614Z,87.93
2019-01-24T15:45:17.588Z,78.30
2019-01-24T15:48:02.619Z,89.37
2019-01-24T15:50:47.630Z,79.77
2019-01-24T15:53:30.143Z,55.83
2019-01-24T15:56:21.551Z,83.50
2019-01-24T15:59:05.789Z,70.97
2019-01-24T16:01:51.023Z,93.70
2019-01-24T16:04:35.959Z,94.50
2019-01-24T16:07:21.014Z,82.43
2019-01-24T16:10:05.963Z,83.73
2019-01-24T16:12:51.019Z,83.63
2019-01-24T16:15:36.026Z,87.33
2019-01-24T16:18:20.935Z,71.13
2019-01-24T16:21:05.791Z,89.10
2019-01-24T16:23:50.765Z,82.00
2019-01-24T16:26:35.634Z,71.77
2019-01-24T16:29:20.561Z,76.00
2019-01-24T16:32:05.346Z,83.90
2019-01-24T16:34:51.630Z,85.30
2019-01-24T16:37:36.361Z,73.77
2019-01-24T16:40:20.650Z,78.27
2019-01-24T16:43:05.707Z,84.07
2019-01-24T16:45:50.809Z,86.07
2019-01-24T16:48:35.608Z,77.70
2019-01-24T16:51:21.751Z,84.27
2019-01-24T16:54:06.144Z,87.50
2019-01-24T16:56:48.896Z,88.70
2019-01-24T16:59:33.426Z,77.13
2019-01-24T17:02:18.927Z,92.17
2019-01-24T17:05:03.618Z,76.27
2019-01-24T17:07:46.170Z,81.57
2019-01-24T17:10:30.984Z,88.07
2019-01-24T17:13:15.994Z,78.37
2019-01-24T17:15:58.546Z,78.33
2019-01-24T17:18:43.211Z,76.57
2019-01-24T17:21:27.424Z,79.03
2019-01-24T17:24:11.616Z,91.03
2019-01-24T17:26:55.903Z,89.33
2019-01-24T17:29:40.038Z,78.27
2019-01-24T17:32:24.451Z,84.50
2019-01-24T17:35:09.343Z,76.80
2019-01-24T17:37:54.401Z,77.93
2019-01-24T17:43:42.838Z,83.77
2019-01-24T17:46:27.838Z,78.73
2019-01-24T17:49:12.899Z,79.20
2019-01-24T17:51:57.826Z,90.87
2019-01-24T17:54:42.731Z,90.43
2019-01-24T17:57:25.218Z,105.90
2019-01-24T18:00:10.760Z,80.30
2019-01-24T18:02:55.751Z,88.23
2019-01-24T18:05:40.530Z,83.57
2019-01-24T18:08:31.236Z,102.13
2019-01-24T18:11:11.455Z,82.90
2019-01-24T18:13:56.408Z,90.40
2019-01-24T18:16:41.267Z,90.60
2019-01-24T18:19:26.297Z,82.87
2019-01-24T18:22:11.377Z,94.00
2019-01-24T18:24:57.188Z,102.60
2019-01-24T18:27:41.681Z,98.93
2019-01-24T18:30:26.675Z,94.80
2019-01-24T18:33:10.927Z,97.23
2019-01-24T18:35:55.971Z,89.00
2019-01-24T18:38:40.878Z,81.90
2019-01-24T18:41:25.917Z,83.10
2019-01-24T18:44:08.372Z,83.43
2019-01-24T18:46:52.928Z,72.43
2019-01-24T18:49:37.179Z,89.13
2019-01-24T18:52:22.262Z,93.77
2019-01-24T18:55:07.376Z,76.17
2019-01-24T18:57:52.303Z,85.30
2019-01-24T19:00:39.636Z,83.93
2019-01-24T19:03:24.433Z,78.50
2019-01-24T19:06:08.786Z,67.53
2019-01-24T19:08:53.689Z,81.53
2019-01-24T19:11:38.619Z,72.50
2019-01-24T19:14:23.475Z,85.47
2019-01-24T19:17:08.512Z,80.03
2019-01-24T19:19:53.366Z,70.70
2019-01-24T19:22:37.806Z,95.70
2019-01-24T19:31:29.211Z,90.20
2019-01-24T19:34:13.426Z,74.30
2019-01-24T19:36:58.552Z,84.80
2019-01-24T19:39:42.849Z,67.60
2019-01-24T19:42:27.916Z,88.97
2019-01-24T19:48:29.894Z,83.07
2019-01-24T19:51:14.895Z,81.90
2019-01-24T19:53:59.927Z,87.07
2019-01-24T19:56:44.807Z,79.17
2019-01-24T19:59:29.876Z,77.17
2019-01-24T20:02:14.118Z,76.63
2019-01-24T20:04:59.183Z,85.80
2019-01-24T20:07:44.234Z,87.30
2019-01-24T20:10:28.416Z,84.97
2019-01-24T20:13:13.292Z,109.93
2019-01-24T20:15:58.425Z,80.23
2019-01-24T20:18:43.466Z,85.90
2019-01-24T20:21:28.503Z,85.33
2019-01-24T20:24:13.489Z,98.13
2019-01-24T20:26:57.624Z,83.53
2019-01-24T20:29:41.995Z,94.07
2019-01-24T20:32:26.886Z,93.33
2019-01-24T20:35:11.896Z,86.63
2019-01-24T20:37:56.970Z,94.10
2019-01-24T20:40:41.145Z,95.93
2019-01-24T20:43:23.752Z,87.30
2019-01-24T20:46:15.113Z,91.70
2019-01-24T20:48:59.547Z,91.03
2019-01-24T20:51:41.981Z,81.83
2019-01-24T20:54:33.444Z,76.43
2019-01-24T20:57:18.017Z,80.27
2019-01-24T21:00:00.499Z,86.43
2019-01-24T21:02:45.257Z,77.30
2019-01-24T21:05:30.375Z,81.63
2019-01-24T21:08:15.442Z,74.33
2019-01-24T21:11:00.474Z,82.93
2019-01-24T21:13:45.425Z,90.17
2019-01-24T21:16:30.501Z,94.93
2019-01-24T21:19:15.615Z,81.10
2019-01-24T21:21:59.723Z,86.80
2019-01-24T21:28:02.096Z,81.00
2019-01-24T21:30:46.322Z,75.00
2019-01-24T21:33:31.336Z,85.07
2019-01-24T21:36:15.490Z,75.77
2019-01-24T21:39:00.634Z,77.53
2019-01-24T21:41:44.917Z,90.67
2019-01-24T21:44:29.005Z,67.73
2019-01-24T21:47:11.526Z,77.23
2019-01-24T21:49:56.098Z,77.93
2019-01-24T21:52:40.251Z,87.20
2019-01-24T21:55:25.363Z,83.13
2019-01-24T21:58:10.154Z,85.13
2019-01-24T22:00:54.952Z,79.50
2019-01-24T22:03:39.909Z,86.27
2019-01-24T22:06:22.286Z,82.07
2019-01-24T22:09:06.675Z,81.53
2019-01-24T22:11:51.622Z,68.07
2019-01-24T22:14:36.330Z,77.93
2019-01-24T22:17:21.336Z,77.53
2019-01-24T22:20:06.449Z,72.67
2019-01-24T22:22:50.730Z,85.63
2019-01-24T22:25:35.709Z,89.73
2019-01-24T22:28:20.746Z,69.80
2019-01-24T22:31:06.092Z,82.53
2019-01-24T22:33:50.966Z,83.07
2019-01-24T22:36:33.369Z,78.03
2019-01-24T22:39:18.046Z,74.37
2019-01-24T22:42:02.215Z,75.03
2019-01-24T22:44:47.275Z,79.43
2019-01-24T22:47:32.322Z,81.50
2019-01-24T22:50:16.593Z,84.07
2019-01-24T22:53:01.331Z,79.23
2019-01-24T22:55:46.359Z,83.37
2019-01-24T22:58:30.752Z,76.67
2019-01-24T23:01:15.897Z,86.83
2019-01-24T23:04:00.493Z,74.13
2019-01-24T23:06:45.391Z,87.67
2019-01-24T23:09:29.557Z,75.37
2019-01-24T23:12:14.562Z,72.53
2019-01-24T23:14:57.066Z,81.53
2019-01-24T23:17:48.467Z,78.37
2019-01-24T23:20:32.715Z,75.73
2019-01-24T23:23:17.149Z,65.60
2019-01-24T23:26:01.478Z,72.37
2019-01-24T23:28:45.854Z,78.47
2019-01-24T23:34:17.122Z,78.33
2019-01-24T23:37:01.271Z,76.03
2019-01-24T23:39:51.588Z,84.77
2019-01-24T23:42:32.343Z,75.33
2019-01-24T23:45:14.876Z,80.17
2019-01-24T23:48:06.315Z,77.20
2019-01-24T23:50:50.538Z,83.63
2019-01-24T23:53:35.546Z,72.73
2019-01-24T23:56:19.754Z,73.13
2019-01-24T23:59:02.540Z,70.47
